createdAt,value
2017-08-12T00:01:32.447Z,10.63
2017-08-12T00:03:59.582Z,10.77
2017-08-12T00:06:25.971Z,10.20
2017-08-12T00:08:52.429Z,10.57
2017-08-12T00:11:18.827Z,9.83
2017-08-12T00:13:45.197Z,9.20
2017-08-12T00:16:11.602Z,10.23
2017-08-12T00:18:38.043Z,8.87
2017-08-12T00:21:04.447Z,9.13
2017-08-12T00:23:30.885Z,9.07
2017-08-12T00:25:57.330Z,9.57
2017-08-12T00:28:23.756Z,9.93
2017-08-12T00:30:50.179Z,8.40
2017-08-12T00:33:16.586Z,7.50
2017-08-12T00:35:43.750Z,7.60
2017-08-12T00:38:10.184Z,8.10
2017-08-12T00:40:36.603Z,9.53
2017-08-12T00:43:03.737Z,8.83
2017-08-12T00:45:30.175Z,10.03
2017-08-12T00:47:56.564Z,11.20
2017-08-12T00:50:23.040Z,10.67
2017-08-12T00:52:49.472Z,9.87
2017-08-12T00:55:15.875Z,10.37
2017-08-12T00:57:42.270Z,9.70
2017-08-12T01:00:08.789Z,9.03
2017-08-12T01:02:35.939Z,9.33
2017-08-12T01:05:03.083Z,10.80
2017-08-12T01:07:29.459Z,8.83
2017-08-12T01:09:55.903Z,9.20
2017-08-12T01:12:22.280Z,9.70
2017-08-12T01:14:49.428Z,9.73
2017-08-12T01:17:16.547Z,9.90
2017-08-12T01:19:42.979Z,9.50
2017-08-12T01:22:09.356Z,10.07
2017-08-12T01:24:36.511Z,10.80
2017-08-12T01:27:02.972Z,10.80
2017-08-12T01:29:29.397Z,9.47
2017-08-12T01:31:55.762Z,10.10
2017-08-12T01:34:22.166Z,9.63
2017-08-12T01:36:48.548Z,9.73
2017-08-12T01:39:15.766Z,8.20
2017-08-12T01:41:42.136Z,7.57
2017-08-12T01:44:09.311Z,6.60
2017-08-12T01:46:35.695Z,7.80
2017-08-12T01:49:02.083Z,6.60
2017-08-12T01:51:28.484Z,7.20
2017-08-12T01:53:55.591Z,7.03
2017-08-12T01:56:22.011Z,7.27
2017-08-12T01:58:48.439Z,6.70
2017-08-12T02:01:14.827Z,6.70
2017-08-12T02:03:41.967Z,6.40
2017-08-12T02:06:08.343Z,6.70
2017-08-12T02:08:34.830Z,5.20
2017-08-12T02:11:01.212Z,4.67
2017-08-12T02:13:27.599Z,4.43
2017-08-12T02:15:54.058Z,3.53
2017-08-12T02:18:20.495Z,2.67
2017-08-12T02:20:46.871Z,2.10
2017-08-12T02:23:13.261Z,1.57
2017-08-12T02:25:39.671Z,1.90
2017-08-12T02:28:06.814Z,2.47
2017-08-12T02:30:33.195Z,1.77
2017-08-12T02:32:59.616Z,1.37
2017-08-12T02:35:26.000Z,1.70
2017-08-12T02:37:52.370Z,1.80
2017-08-12T02:40:18.843Z,2.20
2017-08-12T02:42:45.219Z,2.57
2017-08-12T02:45:12.369Z,2.43
2017-08-12T02:47:39.507Z,2.70
2017-08-12T02:50:05.988Z,3.27
2017-08-12T02:52:32.373Z,2.43
2017-08-12T02:54:59.491Z,2.10
2017-08-12T02:57:25.874Z,2.47
2017-08-12T02:59:53.046Z,2.00
2017-08-12T03:02:19.443Z,2.73
2017-08-12T03:04:46.561Z,2.93
2017-08-12T03:07:12.968Z,2.40
2017-08-12T03:09:39.430Z,2.20
2017-08-12T03:12:05.807Z,1.93
2017-08-12T03:14:32.187Z,1.97
2017-08-12T03:16:58.603Z,2.80
2017-08-12T03:19:25.023Z,4.10
2017-08-12T03:21:51.428Z,5.00
2017-08-12T03:24:18.562Z,5.30
2017-08-12T03:26:44.927Z,5.33
2017-08-12T03:29:11.398Z,5.30
2017-08-12T03:31:37.771Z,5.63
2017-08-12T03:34:04.892Z,6.00
2017-08-12T03:36:31.288Z,4.63
2017-08-12T03:38:57.714Z,5.40
2017-08-12T03:41:24.098Z,5.90
2017-08-12T03:43:50.511Z,5.40
2017-08-12T03:46:16.915Z,5.87
2017-08-12T03:48:43.347Z,5.97
2017-08-12T03:51:09.776Z,5.50
2017-08-12T03:53:36.157Z,4.70
2017-08-12T03:56:02.536Z,5.20
2017-08-12T03:58:28.999Z,4.90
2017-08-12T04:00:55.362Z,5.03
2017-08-12T04:03:21.768Z,3.83
2017-08-12T04:05:48.251Z,3.20
2017-08-12T04:08:15.424Z,3.00
2017-08-12T04:10:41.806Z,2.90
2017-08-12T04:13:08.197Z,2.00
2017-08-12T04:15:34.591Z,2.03
2017-08-12T04:18:01.739Z,3.43
2017-08-12T04:20:28.923Z,3.83
2017-08-12T04:22:55.334Z,3.80
2017-08-12T04:25:21.743Z,2.53
2017-08-12T04:27:48.864Z,2.70
2017-08-12T04:30:15.260Z,1.73
2017-08-12T04:32:41.663Z,1.80
2017-08-12T04:35:08.815Z,1.07
2017-08-12T04:37:35.930Z,1.00
2017-08-12T04:40:02.371Z,0.93
2017-08-12T04:42:28.740Z,0.90
2017-08-12T04:44:55.887Z,0.87
2017-08-12T04:47:22.999Z,0.70
2017-08-12T04:49:49.507Z,1.00
2017-08-12T04:52:15.895Z,1.20
2017-08-12T04:54:43.036Z,0.93
2017-08-12T04:57:10.190Z,0.80
2017-08-12T04:59:37.384Z,1.10
2017-08-12T05:02:03.795Z,0.87
2017-08-12T05:04:30.207Z,0.80
2017-08-12T05:06:57.320Z,1.13
2017-08-12T05:09:23.730Z,0.67
2017-08-12T05:11:50.116Z,1.00
2017-08-12T05:14:17.266Z,0.70
2017-08-12T05:16:44.387Z,0.70
2017-08-12T05:19:10.799Z,1.00
2017-08-12T05:21:38.052Z,1.00
2017-08-12T05:24:04.476Z,0.83
2017-08-12T05:26:30.891Z,0.67
2017-08-12T05:28:57.379Z,0.90
2017-08-12T05:31:23.791Z,1.03
2017-08-12T05:33:50.166Z,0.90
2017-08-12T05:36:17.316Z,1.10
2017-08-12T05:38:44.518Z,1.20
2017-08-12T05:41:10.935Z,0.90
2017-08-12T05:43:37.316Z,1.17
2017-08-12T05:46:03.732Z,0.80
2017-08-12T05:48:30.263Z,0.70
2017-08-12T05:50:56.708Z,0.70
2017-08-12T05:53:23.136Z,1.00
2017-08-12T05:55:49.616Z,0.70
2017-08-12T05:58:16.076Z,0.73
2017-08-12T06:00:42.516Z,0.80
2017-08-12T06:03:08.875Z,0.50
2017-08-12T06:05:35.320Z,0.80
2017-08-12T06:08:01.716Z,0.87
2017-08-12T06:10:28.134Z,0.70
2017-08-12T06:12:54.525Z,0.80
2017-08-12T06:15:21.625Z,0.70
2017-08-12T06:17:48.025Z,0.80
2017-08-12T06:20:14.499Z,1.00
2017-08-12T06:22:40.887Z,0.90
2017-08-12T06:25:08.001Z,0.60
2017-08-12T06:27:34.390Z,0.93
2017-08-12T06:30:00.831Z,0.70
2017-08-12T06:32:27.270Z,0.90
2017-08-12T06:34:53.651Z,0.70
2017-08-12T06:37:20.766Z,0.67
2017-08-12T06:39:47.210Z,0.80
2017-08-12T06:42:13.583Z,0.87
2017-08-12T06:44:40.028Z,0.90
2017-08-12T06:47:06.437Z,0.60
2017-08-12T06:49:33.654Z,0.90
2017-08-12T06:52:00.075Z,0.73
2017-08-12T06:54:26.474Z,0.73
2017-08-12T06:56:52.879Z,0.73
2017-08-12T06:59:20.111Z,0.80
2017-08-12T07:01:47.057Z,0.80
2017-08-12T07:04:13.448Z,0.60
2017-08-12T07:06:39.843Z,0.57
2017-08-12T07:09:07.091Z,0.87
2017-08-12T07:11:33.603Z,0.77
2017-08-12T07:14:00.063Z,0.70
2017-08-12T07:16:26.644Z,0.53
2017-08-12T07:18:53.083Z,0.67
2017-08-12T07:21:19.551Z,0.60
2017-08-12T07:23:45.967Z,0.60
2017-08-12T07:26:12.368Z,0.50
2017-08-12T07:28:39.062Z,0.80
2017-08-12T07:31:06.403Z,0.73
2017-08-12T07:33:33.617Z,0.60
2017-08-12T07:36:00.063Z,0.60
2017-08-12T07:38:26.736Z,0.63
2017-08-12T07:40:53.975Z,0.60
2017-08-12T07:43:20.375Z,0.70
2017-08-12T07:45:46.775Z,0.70
2017-08-12T07:48:14.271Z,0.67
2017-08-12T07:50:41.606Z,0.47
2017-08-12T07:53:08.005Z,0.60
2017-08-12T07:55:35.582Z,0.77
2017-08-12T07:58:02.075Z,0.60
2017-08-12T08:00:28.479Z,0.60
2017-08-12T08:02:54.911Z,0.70
2017-08-12T08:05:21.329Z,0.73
2017-08-12T08:07:47.728Z,0.90
2017-08-12T08:10:14.206Z,0.60
2017-08-12T08:12:40.639Z,0.70
2017-08-12T08:15:07.049Z,1.10
2017-08-12T08:17:33.475Z,1.53
2017-08-12T08:20:00.720Z,0.50
2017-08-12T08:22:27.202Z,0.70
2017-08-12T08:24:53.618Z,0.67
2017-08-12T08:27:20.034Z,0.50
2017-08-12T08:29:46.492Z,0.77
2017-08-12T08:32:14.360Z,0.60
2017-08-12T08:34:40.739Z,0.63
2017-08-12T08:37:07.152Z,0.63
2017-08-12T08:39:33.576Z,0.50
2017-08-12T08:42:00.923Z,0.67
2017-08-12T08:44:27.338Z,0.50
2017-08-12T08:46:53.722Z,0.50
2017-08-12T08:49:20.239Z,0.60
2017-08-12T08:51:47.563Z,0.50
2017-08-12T08:54:13.977Z,0.50
2017-08-12T08:56:40.388Z,0.70
2017-08-12T08:59:07.578Z,0.57
2017-08-12T09:01:33.950Z,0.60
2017-08-12T09:04:00.352Z,0.50
2017-08-12T09:06:26.767Z,0.80
2017-08-12T09:08:53.238Z,0.70
2017-08-12T09:11:19.622Z,0.87
2017-08-12T09:13:46.028Z,0.70
2017-08-12T09:16:12.444Z,0.70
2017-08-12T09:18:38.878Z,0.90
2017-08-12T09:21:05.256Z,0.57
2017-08-12T09:23:31.633Z,0.70
2017-08-12T09:25:58.030Z,0.90
2017-08-12T09:28:24.459Z,0.70
2017-08-12T09:30:50.859Z,0.90
2017-08-12T09:33:18.077Z,0.50
2017-08-12T09:35:44.587Z,0.60
2017-08-12T09:38:11.003Z,0.60
2017-08-12T09:40:37.411Z,0.57
2017-08-12T09:43:04.602Z,0.80
2017-08-12T09:45:31.004Z,0.97
2017-08-12T09:47:57.411Z,0.90
2017-08-12T09:50:23.894Z,0.70
2017-08-12T09:52:50.355Z,0.60
2017-08-12T09:55:16.740Z,0.70
2017-08-12T09:57:43.151Z,0.70
2017-08-12T10:00:10.487Z,0.63
2017-08-12T10:02:36.908Z,0.90
2017-08-12T10:05:03.315Z,0.40
2017-08-12T10:07:29.717Z,0.70
2017-08-12T10:09:56.195Z,0.83
2017-08-12T10:12:22.606Z,1.00
2017-08-12T10:14:49.020Z,0.80
2017-08-12T10:17:16.341Z,0.90
2017-08-12T10:19:43.108Z,0.80
2017-08-12T10:22:09.643Z,0.93
2017-08-12T10:24:36.811Z,2.10
2017-08-12T10:27:03.273Z,1.00
2017-08-12T10:29:29.846Z,1.00
2017-08-12T10:32:11.160Z,0.90
2017-08-12T10:34:37.618Z,0.53
2017-08-12T10:37:04.059Z,0.60
2017-08-12T10:39:30.528Z,0.67
2017-08-12T10:41:57.696Z,0.70
2017-08-12T10:44:24.093Z,0.70
2017-08-12T10:46:51.374Z,0.83
2017-08-12T10:49:17.866Z,0.70
2017-08-12T10:51:44.282Z,0.77
2017-08-12T10:54:10.655Z,0.60
2017-08-12T10:56:37.027Z,0.80
2017-08-12T10:59:03.504Z,0.80
2017-08-12T11:01:29.883Z,0.77
2017-08-12T11:03:56.992Z,0.60
2017-08-12T11:06:23.517Z,0.90
2017-08-12T11:08:50.135Z,0.70
2017-08-12T11:11:16.603Z,0.60
2017-08-12T11:13:43.036Z,1.00
2017-08-12T11:16:09.466Z,1.20
2017-08-12T11:18:35.886Z,1.00
2017-08-12T11:21:02.260Z,0.93
2017-08-12T11:23:29.511Z,1.40
2017-08-12T11:25:56.651Z,0.87
2017-08-12T11:28:23.163Z,1.10
2017-08-12T11:30:49.590Z,1.40
2017-08-12T11:33:15.984Z,1.30
2017-08-12T11:35:42.424Z,1.13
2017-08-12T11:38:08.800Z,1.30
2017-08-12T11:40:35.184Z,1.37
2017-08-12T11:43:01.584Z,1.00
2017-08-12T11:45:27.979Z,0.90
2017-08-12T11:47:54.379Z,0.80
2017-08-12T11:50:20.855Z,0.90
2017-08-12T11:52:47.280Z,1.00
2017-08-12T11:55:13.671Z,0.70
2017-08-12T11:57:40.136Z,0.93
2017-08-12T12:00:07.667Z,0.53
2017-08-12T12:02:34.669Z,0.60
2017-08-12T12:05:01.108Z,0.80
2017-08-12T12:07:27.512Z,0.57
2017-08-12T12:09:54.302Z,0.63
2017-08-12T12:12:20.772Z,0.80
2017-08-12T12:14:47.185Z,1.10
2017-08-12T12:17:13.658Z,0.70
2017-08-12T12:19:41.092Z,0.70
2017-08-12T12:22:08.416Z,0.70
2017-08-12T12:24:34.871Z,0.80
2017-08-12T12:27:01.304Z,0.73
2017-08-12T12:29:27.751Z,0.93
2017-08-12T12:31:54.183Z,0.60
2017-08-12T12:34:25.252Z,0.93
2017-08-12T12:36:52.678Z,0.80
2017-08-12T12:39:19.136Z,0.57
2017-08-12T12:41:45.591Z,0.57
2017-08-12T12:44:11.987Z,0.73
2017-08-12T12:46:38.372Z,0.80
2017-08-12T12:49:05.582Z,0.70
2017-08-12T12:51:31.959Z,0.63
2017-08-12T12:53:59.095Z,0.70
2017-08-12T12:56:25.483Z,1.00
2017-08-12T12:58:51.888Z,0.80
2017-08-12T13:01:18.302Z,0.50
2017-08-12T13:03:45.417Z,0.60
2017-08-12T13:06:11.783Z,0.73
2017-08-12T13:08:38.267Z,0.70
2017-08-12T13:11:04.694Z,0.73
2017-08-12T13:13:31.096Z,0.80
2017-08-12T13:15:57.503Z,0.60
2017-08-12T13:18:24.719Z,0.90
2017-08-12T13:20:51.090Z,0.80
2017-08-12T13:23:18.279Z,1.03
2017-08-12T13:25:44.723Z,0.90
2017-08-12T13:28:11.119Z,0.70
2017-08-12T13:30:38.244Z,1.00
2017-08-12T13:33:04.769Z,0.87
2017-08-12T13:35:31.915Z,0.70
2017-08-12T13:37:58.279Z,0.80
2017-08-12T13:40:25.496Z,1.20
2017-08-12T13:42:52.113Z,0.90
2017-08-12T13:45:18.638Z,0.70
2017-08-12T13:47:45.122Z,0.70
2017-08-12T13:50:12.411Z,0.90
2017-08-12T13:52:38.871Z,0.80
2017-08-12T13:55:05.266Z,1.00
2017-08-12T13:57:32.034Z,0.90
2017-08-12T13:59:58.470Z,1.07
2017-08-12T14:02:25.656Z,1.23
2017-08-12T14:04:52.079Z,1.07
2017-08-12T14:07:18.472Z,0.80
2017-08-12T14:09:44.943Z,0.90
2017-08-12T14:12:11.305Z,0.93
2017-08-12T14:14:38.426Z,0.90
2017-08-12T14:17:04.829Z,0.70
2017-08-12T14:19:31.250Z,1.10
2017-08-12T14:21:57.628Z,0.67
2017-08-12T14:24:24.111Z,0.87
2017-08-12T14:26:50.528Z,0.70
2017-08-12T14:29:17.015Z,0.83
2017-08-12T14:31:43.394Z,0.70
2017-08-12T14:34:10.547Z,0.97
2017-08-12T14:36:36.940Z,0.80
2017-08-12T14:39:03.460Z,1.20
2017-08-12T14:41:30.223Z,1.03
2017-08-12T14:43:56.635Z,0.90
2017-08-12T14:46:23.036Z,0.83
2017-08-12T14:48:49.520Z,0.90
2017-08-12T14:51:15.896Z,0.80
2017-08-12T14:53:42.317Z,1.00
2017-08-12T14:56:15.912Z,1.00
2017-08-12T14:58:43.198Z,1.27
2017-08-12T15:01:09.592Z,1.00
2017-08-12T15:03:36.209Z,1.10
2017-08-12T15:06:02.663Z,1.00
2017-08-12T15:08:29.208Z,1.07
2017-08-12T15:10:55.611Z,1.17
2017-08-12T15:13:22.048Z,1.53
2017-08-12T15:15:48.465Z,1.33
2017-08-12T15:18:14.862Z,1.20
2017-08-12T15:20:41.251Z,1.37
2017-08-12T15:23:07.635Z,1.30
2017-08-12T15:25:34.067Z,1.20
2017-08-12T15:28:00.438Z,1.10
2017-08-12T15:30:26.858Z,1.13
2017-08-12T15:32:53.254Z,1.30
2017-08-12T15:35:19.691Z,1.33
2017-08-12T15:37:46.140Z,1.10
2017-08-12T15:40:12.606Z,1.23
2017-08-12T15:42:38.991Z,1.00
2017-08-12T15:45:05.428Z,1.10
2017-08-12T15:47:31.965Z,1.90
2017-08-12T15:49:58.403Z,1.17
2017-08-12T15:52:24.787Z,1.10
2017-08-12T15:54:51.238Z,1.20
2017-08-12T15:57:17.721Z,1.10
2017-08-12T15:59:44.187Z,0.80
2017-08-12T16:02:11.332Z,1.30
2017-08-12T16:04:37.739Z,1.30
2017-08-12T16:07:04.111Z,1.20
2017-08-12T16:09:31.319Z,1.20
2017-08-12T16:11:57.726Z,1.00
2017-08-12T16:14:24.146Z,0.90
2017-08-12T16:16:50.563Z,1.03
2017-08-12T16:19:17.668Z,1.27
2017-08-12T16:21:44.083Z,1.00
2017-08-12T16:24:10.552Z,0.90
2017-08-12T16:26:36.983Z,1.20
2017-08-12T16:29:03.491Z,1.27
2017-08-12T16:31:29.925Z,1.20
2017-08-12T16:33:56.347Z,1.43
2017-08-12T16:36:22.775Z,1.20
2017-08-12T16:38:49.204Z,0.93
2017-08-12T16:41:15.599Z,0.80
2017-08-12T16:43:42.755Z,1.03
2017-08-12T16:46:09.887Z,0.73
2017-08-12T16:48:37.087Z,0.80
2017-08-12T16:51:03.498Z,0.70
2017-08-12T16:53:36.814Z,0.90
2017-08-12T16:56:03.276Z,0.80
2017-08-12T16:58:29.716Z,0.70
2017-08-12T17:00:56.099Z,0.80
2017-08-12T17:03:22.480Z,0.70
2017-08-12T17:05:48.866Z,0.70
2017-08-12T17:08:15.302Z,0.87
2017-08-12T17:10:41.688Z,0.90
2017-08-12T17:13:08.086Z,0.80
2017-08-12T17:15:34.495Z,0.80
2017-08-12T17:18:00.895Z,0.60
2017-08-12T17:20:27.366Z,0.90
2017-08-12T17:22:53.751Z,0.90
2017-08-12T17:25:20.161Z,0.50
2017-08-12T17:27:46.547Z,0.73
2017-08-12T17:30:13.057Z,1.00
2017-08-12T17:32:39.439Z,0.67
2017-08-12T17:35:05.843Z,0.70
2017-08-12T17:37:32.226Z,0.73
2017-08-12T17:39:58.632Z,1.00
2017-08-12T17:42:25.042Z,0.80
2017-08-12T17:44:51.466Z,0.80
2017-08-12T17:47:17.924Z,0.90
2017-08-12T17:49:44.387Z,0.67
2017-08-12T17:52:10.786Z,0.80
2017-08-12T17:54:37.222Z,0.90
2017-08-12T17:57:03.709Z,1.00
2017-08-12T17:59:30.196Z,0.80
2017-08-12T18:01:56.571Z,0.80
2017-08-12T18:04:22.975Z,1.20
2017-08-12T18:06:49.367Z,0.80
2017-08-12T18:09:15.843Z,0.80
2017-08-12T18:11:42.247Z,0.67
2017-08-12T18:14:08.726Z,1.60
2017-08-12T18:16:35.173Z,1.33
2017-08-12T18:19:01.750Z,1.27
2017-08-12T18:21:28.146Z,1.70
2017-08-12T18:23:54.623Z,0.70
2017-08-12T18:26:21.027Z,0.63
2017-08-12T18:28:48.759Z,0.80
2017-08-12T18:31:15.167Z,1.30
2017-08-12T18:33:41.576Z,0.93
2017-08-12T18:36:08.007Z,1.40
2017-08-12T18:38:34.464Z,1.80
2017-08-12T18:41:00.851Z,2.13
2017-08-12T18:43:28.005Z,0.90
2017-08-12T18:45:55.171Z,1.00
2017-08-12T18:48:21.543Z,0.77
2017-08-12T18:50:47.923Z,0.87
2017-08-12T18:53:14.444Z,0.60
2017-08-12T18:55:41.554Z,1.00
2017-08-12T18:58:07.983Z,0.80
2017-08-12T19:00:34.413Z,0.67
2017-08-12T19:03:00.792Z,0.70
2017-08-12T19:05:27.947Z,0.90
2017-08-12T19:07:55.083Z,0.70
2017-08-12T19:10:22.307Z,0.90
2017-08-12T19:12:48.691Z,1.33
2017-08-12T19:15:15.090Z,0.83
2017-08-12T19:17:41.495Z,1.00
2017-08-12T19:20:07.907Z,1.73
2017-08-12T19:22:34.316Z,0.77
2017-08-12T19:25:00.738Z,1.07
2017-08-12T19:27:27.123Z,0.80
2017-08-12T19:29:53.547Z,0.60
2017-08-12T19:32:19.936Z,0.80
2017-08-12T19:34:47.107Z,0.60
2017-08-12T19:37:14.111Z,0.60
2017-08-12T19:39:40.636Z,0.97
2017-08-12T19:42:07.037Z,1.07
2017-08-12T19:44:33.451Z,0.80
2017-08-12T19:46:59.835Z,1.10
2017-08-12T19:49:26.267Z,1.23
2017-08-12T19:51:53.427Z,1.67
2017-08-12T19:54:19.832Z,0.93
2017-08-12T19:56:46.219Z,3.07
2017-08-12T19:59:12.713Z,1.20
2017-08-12T20:01:39.107Z,0.90
2017-08-12T20:04:05.492Z,1.00
2017-08-12T20:06:31.922Z,1.00
2017-08-12T20:08:58.308Z,1.03
2017-08-12T20:11:24.726Z,1.20
2017-08-12T20:13:51.124Z,0.90
2017-08-12T20:16:17.548Z,0.97
2017-08-12T20:18:44.069Z,1.20
2017-08-12T20:21:10.448Z,1.00
2017-08-12T20:23:37.601Z,1.23
2017-08-12T20:26:04.020Z,1.10
2017-08-12T20:28:31.206Z,1.00
2017-08-12T20:30:57.632Z,1.17
2017-08-12T20:33:31.092Z,2.13
2017-08-12T20:35:57.495Z,1.93
2017-08-12T20:38:23.912Z,1.20
2017-08-12T20:40:50.303Z,3.57
2017-08-12T20:43:17.457Z,1.50
2017-08-12T20:45:44.612Z,0.93
2017-08-12T20:48:11.765Z,1.97
2017-08-12T20:50:38.149Z,1.63
2017-08-12T20:53:04.546Z,1.30
2017-08-12T20:55:31.005Z,1.63
2017-08-12T20:57:57.391Z,1.53
2017-08-12T21:00:23.868Z,1.27
2017-08-12T21:02:50.292Z,1.50
2017-08-12T21:05:16.682Z,1.10
2017-08-12T21:07:43.824Z,1.50
2017-08-12T21:10:11.008Z,1.93
2017-08-12T21:12:37.391Z,1.70
2017-08-12T21:15:03.811Z,2.10
2017-08-12T21:17:30.188Z,1.50
2017-08-12T21:19:56.667Z,1.30
2017-08-12T21:22:23.042Z,1.90
2017-08-12T21:24:49.416Z,1.73
2017-08-12T21:27:15.819Z,1.77
2017-08-12T21:29:42.278Z,1.67
2017-08-12T21:32:08.671Z,1.53
2017-08-12T21:34:35.827Z,1.43
2017-08-12T21:37:02.967Z,1.70
2017-08-12T21:39:29.476Z,1.67
2017-08-12T21:41:55.939Z,1.50
2017-08-12T21:44:22.363Z,1.50
2017-08-12T21:46:48.743Z,1.30
2017-08-12T21:49:15.183Z,1.50
2017-08-12T21:51:41.559Z,1.60
2017-08-12T21:54:07.983Z,1.50
2017-08-12T21:56:34.390Z,1.83
2017-08-12T21:59:00.791Z,1.97
2017-08-12T22:01:27.204Z,1.40
2017-08-12T22:03:54.364Z,1.50
2017-08-12T22:06:20.731Z,1.40
2017-08-12T22:08:47.151Z,1.60
2017-08-12T22:11:13.560Z,1.50
2017-08-12T22:13:39.978Z,1.67
2017-08-12T22:16:07.104Z,1.40
2017-08-12T22:18:33.628Z,1.87
2017-08-12T22:21:00.019Z,2.30
2017-08-12T22:23:26.431Z,1.83
2017-08-12T22:25:53.563Z,1.90
2017-08-12T22:28:19.995Z,2.03
2017-08-12T22:30:46.371Z,2.50
2017-08-12T22:33:12.780Z,1.93
2017-08-12T22:35:39.169Z,2.40
2017-08-12T22:38:05.554Z,2.13
2017-08-12T22:40:32.032Z,2.63
2017-08-12T22:42:58.411Z,2.10
2017-08-12T22:45:24.852Z,2.40
2017-08-12T22:47:51.227Z,2.27
2017-08-12T22:50:17.667Z,2.43
2017-08-12T22:52:44.075Z,2.17
2017-08-12T22:55:10.518Z,2.53
2017-08-12T22:57:36.930Z,2.63
2017-08-12T23:00:03.374Z,2.90
2017-08-12T23:02:29.816Z,2.80
2017-08-12T23:04:56.233Z,2.50
2017-08-12T23:07:22.645Z,2.70
2017-08-12T23:09:49.123Z,2.53
2017-08-12T23:12:15.498Z,2.70
2017-08-12T23:14:41.927Z,3.03
2017-08-12T23:17:09.044Z,2.80
2017-08-12T23:19:35.445Z,3.00
2017-08-12T23:22:01.915Z,3.43
2017-08-12T23:24:28.294Z,2.97
2017-08-12T23:26:54.691Z,2.93
2017-08-12T23:29:21.195Z,2.57
2017-08-12T23:31:47.611Z,2.50
2017-08-12T23:34:14.013Z,2.70
2017-08-12T23:36:41.155Z,2.30
2017-08-12T23:39:08.376Z,2.70
2017-08-12T23:41:34.764Z,2.40
2017-08-12T23:44:01.127Z,2.77
2017-08-12T23:46:27.546Z,2.23
2017-08-12T23:48:54.011Z,2.40
2017-08-12T23:51:20.380Z,2.80
2017-08-12T23:53:46.767Z,2.80
2017-08-12T23:56:13.151Z,3.13
2017-08-12T23:58:39.611Z,2.50
